Wathena, Kansas
Current Conditions -  °F | °C
As of 7:53 AM on Saturday 25 Oct 2014 (Local Time) from KSTJ Reporting Station
Moderate Fog Moderate Fog  
Wind Chill: 10°   Ceiling: 100
Heat Index: 10°   Visibility: 0mi
Dew Point: 10°   Wind: 0mph
Humidity: 100%   Direction: NA
Pressure: 30.06"   Gusts: NA
Location:  39.76°N, 94.95°W
Report Text: KSTJ 251253Z 00000KT M1/4SM R35/0600V0800FT FG VV001 10/10 A3006 RMK AO2 SLP178 T01000100
Loading
Personal Weather Stations






























Interactive Weather Map
Tropical Storm Tracking
New forecast layout! Learn more

10-Day Weather Forecast

Advertisements
Track Severe Weather on mobile